createdAt,value
2017-10-17T00:00:21.846Z,22.34
2017-10-17T00:02:50.153Z,26.22
2017-10-17T00:05:18.480Z,22.24
2017-10-17T00:07:46.778Z,22.12
2017-10-17T00:10:15.074Z,19.88
2017-10-17T00:12:43.393Z,20.90
2017-10-17T00:15:11.690Z,25.06
2017-10-17T00:17:40.016Z,24.86
2017-10-17T00:20:08.312Z,21.70
2017-10-17T00:22:36.661Z,19.06
2017-10-17T00:25:05.895Z,22.12
2017-10-17T00:27:34.196Z,27.16
2017-10-17T00:30:02.530Z,24.08
2017-10-17T00:32:37.457Z,23.78
2017-10-17T00:35:13.552Z,24.00
2017-10-17T00:37:41.844Z,21.98
2017-10-17T00:40:10.165Z,21.22
2017-10-17T00:42:38.460Z,27.42
2017-10-17T00:45:06.776Z,30.18
2017-10-17T00:47:35.120Z,24.62
2017-10-17T00:50:03.458Z,29.60
2017-10-17T00:52:31.769Z,31.68
2017-10-17T00:55:00.069Z,37.34
2017-10-17T00:57:28.390Z,26.12
2017-10-17T00:59:56.685Z,21.70
2017-10-17T01:02:25.009Z,25.86
2017-10-17T01:04:53.305Z,29.92
2017-10-17T01:07:20.882Z,28.34
2017-10-17T01:09:49.186Z,45.14
2017-10-17T01:12:17.483Z,26.74
2017-10-17T01:14:45.805Z,26.58
2017-10-17T01:17:14.106Z,24.46
2017-10-17T01:19:42.428Z,25.32
2017-10-17T01:22:10.729Z,23.22
2017-10-17T01:24:39.058Z,22.06
2017-10-17T01:27:07.353Z,30.26
2017-10-17T01:29:35.672Z,24.10
2017-10-17T01:32:03.975Z,30.32
2017-10-17T01:34:33.724Z,25.58
2017-10-17T01:37:02.021Z,29.82
2017-10-17T01:39:31.200Z,24.02
2017-10-17T01:41:59.524Z,27.80
2017-10-17T01:44:41.333Z,43.70
2017-10-17T01:47:13.404Z,29.98
2017-10-17T01:49:43.145Z,42.06
2017-10-17T01:52:14.265Z,32.10
2017-10-17T01:54:49.421Z,28.14
2017-10-17T01:57:17.830Z,25.08
2017-10-17T01:59:49.969Z,30.80
2017-10-17T02:02:18.304Z,23.18
2017-10-17T02:04:46.597Z,28.14
2017-10-17T02:07:14.888Z,28.32
2017-10-17T02:09:43.208Z,25.46
2017-10-17T02:12:11.507Z,29.52
2017-10-17T02:14:39.828Z,26.06
2017-10-17T02:17:08.125Z,29.42
2017-10-17T02:19:36.445Z,24.28
2017-10-17T02:22:04.743Z,23.76
2017-10-17T02:25:01.578Z,20.22
2017-10-17T02:27:29.877Z,27.50
2017-10-17T02:30:16.970Z,22.14
2017-10-17T02:32:45.283Z,24.48
2017-10-17T02:35:32.361Z,22.04
2017-10-17T02:38:01.585Z,27.10
2017-10-17T02:40:29.876Z,21.36
2017-10-17T02:43:09.829Z,21.18
2017-10-17T02:45:38.129Z,22.60
2017-10-17T02:48:21.334Z,19.94
2017-10-17T02:50:49.636Z,26.12
2017-10-17T02:53:17.997Z,22.30
2017-10-17T02:55:46.293Z,20.94
2017-10-17T02:58:16.342Z,21.50
2017-10-17T03:00:44.637Z,26.20
2017-10-17T03:03:15.676Z,19.88
2017-10-17T03:05:43.996Z,20.94
2017-10-17T03:08:12.297Z,18.84
2017-10-17T03:10:40.615Z,20.30
2017-10-17T03:13:11.385Z,18.68
2017-10-17T03:15:40.620Z,23.26
2017-10-17T03:18:11.717Z,21.68
2017-10-17T03:20:40.059Z,19.34
2017-10-17T03:23:21.853Z,17.90
2017-10-17T03:25:50.193Z,20.92
2017-10-17T03:28:18.488Z,19.52
2017-10-17T03:30:50.573Z,21.58
2017-10-17T03:33:24.336Z,21.56
2017-10-17T03:35:52.658Z,19.58
2017-10-17T03:38:36.777Z,22.00
2017-10-17T03:41:21.723Z,20.40
2017-10-17T03:44:09.625Z,18.62
2017-10-17T03:46:46.600Z,17.06
2017-10-17T03:49:36.305Z,21.06
2017-10-17T03:52:14.529Z,17.98
2017-10-17T03:54:42.837Z,19.12
2017-10-17T03:57:11.141Z,21.56
2017-10-17T03:59:55.146Z,18.20
2017-10-17T04:02:23.449Z,19.24
2017-10-17T04:05:00.381Z,18.26
2017-10-17T04:10:58.623Z,21.02
2017-10-17T04:13:36.561Z,18.74
2017-10-17T04:16:09.267Z,18.88
2017-10-17T04:18:49.151Z,19.30
2017-10-17T04:21:20.235Z,19.06
2017-10-17T04:24:07.212Z,17.54
2017-10-17T04:26:35.551Z,18.34
2017-10-17T04:29:15.887Z,19.26
2017-10-17T04:31:44.858Z,21.00
2017-10-17T04:34:37.600Z,19.38
2017-10-17T04:37:30.487Z,17.62
2017-10-17T04:39:58.801Z,19.38
2017-10-17T04:42:49.497Z,20.18
2017-10-17T04:45:37.408Z,18.10
2017-10-17T04:48:26.484Z,17.64
2017-10-17T04:51:18.243Z,22.16
2017-10-17T04:54:03.548Z,18.16
2017-10-17T04:56:34.674Z,17.82
2017-10-17T04:59:26.731Z,22.82
2017-10-17T05:02:11.898Z,24.56
2017-10-17T05:04:46.061Z,21.78
2017-10-17T05:07:15.140Z,29.46
2017-10-17T05:09:47.895Z,27.92
2017-10-17T05:12:21.155Z,26.30
2017-10-17T05:14:49.523Z,25.70
2017-10-17T05:17:29.631Z,28.76
2017-10-17T05:20:25.739Z,35.36
2017-10-17T05:22:59.671Z,27.58
2017-10-17T05:25:38.734Z,31.06
2017-10-17T05:28:30.894Z,26.66
2017-10-17T05:31:04.062Z,23.46
2017-10-17T05:34:04.930Z,24.80
2017-10-17T05:36:34.939Z,23.02
2017-10-17T05:39:04.991Z,26.08
2017-10-17T05:41:34.355Z,23.34
2017-10-17T05:44:11.623Z,23.32
2017-10-17T05:46:40.695Z,22.10
2017-10-17T05:49:11.958Z,31.00
2017-10-17T05:51:40.277Z,29.92
2017-10-17T05:54:07.844Z,27.82
2017-10-17T05:56:37.207Z,32.86
2017-10-17T05:59:05.580Z,45.48
2017-10-17T06:01:33.893Z,35.22
2017-10-17T06:04:02.799Z,26.22
2017-10-17T06:06:31.125Z,26.38
2017-10-17T06:09:00.431Z,22.50
2017-10-17T06:11:28.764Z,27.30
2017-10-17T06:13:57.151Z,28.64
2017-10-17T06:16:25.491Z,25.30
2017-10-17T06:18:53.848Z,23.46
2017-10-17T06:21:22.199Z,24.86
2017-10-17T06:23:50.557Z,25.72
2017-10-17T06:26:18.908Z,24.42
2017-10-17T06:28:47.223Z,21.42
2017-10-17T06:31:15.559Z,39.82
2017-10-17T06:33:43.898Z,47.58
2017-10-17T06:36:12.207Z,94.92
2017-10-17T06:38:40.535Z,55.20
2017-10-17T06:41:08.891Z,34.64
2017-10-17T06:43:38.371Z,25.26
2017-10-17T06:46:08.100Z,23.82
2017-10-17T06:48:37.431Z,23.78
2017-10-17T06:51:06.817Z,26.82
2017-10-17T06:53:35.158Z,32.88
2017-10-17T06:56:04.768Z,31.40
2017-10-17T06:58:34.274Z,30.88
2017-10-17T07:01:03.583Z,34.38
2017-10-17T07:03:32.390Z,27.24
2017-10-17T07:06:00.790Z,26.68
2017-10-17T07:08:29.127Z,29.34
2017-10-17T07:10:56.708Z,31.74
2017-10-17T07:13:25.030Z,30.62
2017-10-17T07:15:53.408Z,31.94
2017-10-17T07:18:21.966Z,32.60
2017-10-17T07:20:50.282Z,33.60
2017-10-17T07:23:18.611Z,32.70
2017-10-17T07:25:46.926Z,40.88
2017-10-17T07:28:15.265Z,28.48
2017-10-17T07:30:42.811Z,34.40
2017-10-17T07:33:11.166Z,38.74
2017-10-17T07:35:39.479Z,34.46
2017-10-17T07:38:07.791Z,35.14
2017-10-17T07:40:37.443Z,37.00
2017-10-17T07:43:06.695Z,30.18
2017-10-17T07:45:35.031Z,31.22
2017-10-17T07:48:04.112Z,34.70
2017-10-17T07:50:33.750Z,29.22
2017-10-17T07:53:03.144Z,29.18
2017-10-17T07:55:31.458Z,29.18
2017-10-17T07:58:00.595Z,26.74
2017-10-17T08:00:28.915Z,31.34
2017-10-17T08:02:57.588Z,27.48
2017-10-17T08:05:25.901Z,26.88
2017-10-17T08:07:54.255Z,25.34
2017-10-17T08:10:22.567Z,24.54
2017-10-17T08:12:50.898Z,22.08
2017-10-17T08:15:18.463Z,22.78
2017-10-17T08:17:46.787Z,23.78
2017-10-17T08:20:15.115Z,24.40
2017-10-17T08:22:43.507Z,24.84
2017-10-17T08:25:11.860Z,24.04
2017-10-17T08:27:40.174Z,24.10
2017-10-17T08:30:08.487Z,23.66
2017-10-17T08:32:37.806Z,27.94
2017-10-17T08:35:06.815Z,18.42
2017-10-17T08:37:35.155Z,21.76
2017-10-17T08:40:04.647Z,18.66
2017-10-17T08:42:33.997Z,21.24
2017-10-17T08:45:03.663Z,19.02
2017-10-17T08:47:33.196Z,18.70
2017-10-17T08:50:02.229Z,19.04
2017-10-17T08:52:30.547Z,17.74
2017-10-17T08:54:58.895Z,17.30
2017-10-17T08:57:27.202Z,19.84
2017-10-17T08:59:55.554Z,22.02
2017-10-17T09:02:23.885Z,19.22
2017-10-17T09:04:52.199Z,20.24
2017-10-17T09:07:20.531Z,23.76
2017-10-17T09:09:48.851Z,19.22
2017-10-17T09:12:17.174Z,20.12
2017-10-17T09:14:45.478Z,16.80
2017-10-17T09:17:13.839Z,20.32
2017-10-17T09:19:42.143Z,17.92
2017-10-17T09:22:10.499Z,19.62
2017-10-17T09:24:38.838Z,13.66
2017-10-17T09:27:08.579Z,16.42
2017-10-17T09:29:38.040Z,18.42
2017-10-17T09:32:07.242Z,19.32
2017-10-17T09:34:35.587Z,18.50
2017-10-17T09:37:03.908Z,16.92
2017-10-17T09:39:32.247Z,16.58
2017-10-17T09:42:00.587Z,18.80
2017-10-17T09:44:28.896Z,18.50
2017-10-17T09:46:57.228Z,22.76
2017-10-17T09:49:25.543Z,17.70
2017-10-17T09:51:53.906Z,20.46
2017-10-17T09:54:22.212Z,17.20
2017-10-17T09:56:50.518Z,17.96
2017-10-17T09:59:18.852Z,17.62
2017-10-17T10:01:47.168Z,21.70
2017-10-17T10:04:15.543Z,27.16
2017-10-17T10:06:43.856Z,28.24
2017-10-17T10:09:12.231Z,28.88
2017-10-17T10:11:40.627Z,37.08
2017-10-17T10:14:08.939Z,32.00
2017-10-17T10:16:38.696Z,32.62
2017-10-17T10:19:07.595Z,28.90
2017-10-17T10:21:37.510Z,28.84
2017-10-17T10:24:07.238Z,31.86
2017-10-17T10:26:35.628Z,32.26
2017-10-17T10:29:03.934Z,26.94
2017-10-17T10:31:32.314Z,28.90
2017-10-17T10:34:00.643Z,30.32
2017-10-17T10:36:28.979Z,31.78
2017-10-17T10:38:57.311Z,24.86
2017-10-17T10:41:25.623Z,29.26
2017-10-17T10:43:53.962Z,26.80
2017-10-17T10:46:22.286Z,30.44
2017-10-17T10:48:50.646Z,26.00
2017-10-17T10:51:18.975Z,28.10
2017-10-17T10:53:47.282Z,30.96
2017-10-17T10:56:15.622Z,27.48
2017-10-17T10:58:43.936Z,29.16
2017-10-17T11:01:12.286Z,31.40
2017-10-17T11:03:40.599Z,29.92
2017-10-17T11:06:08.514Z,28.96
2017-10-17T11:08:36.847Z,30.22
2017-10-17T11:11:05.155Z,27.80
2017-10-17T11:13:34.707Z,28.14
2017-10-17T11:16:04.055Z,32.84
2017-10-17T11:18:33.643Z,29.02
2017-10-17T11:21:02.946Z,23.70
2017-10-17T11:23:31.273Z,29.14
2017-10-17T11:25:59.655Z,27.48
2017-10-17T11:28:28.056Z,29.94
2017-10-17T11:30:56.483Z,26.92
2017-10-17T11:33:24.795Z,24.80
2017-10-17T11:35:53.200Z,30.70
2017-10-17T11:38:21.507Z,22.92
2017-10-17T11:41:02.411Z,28.80
2017-10-17T11:43:42.698Z,30.20
2017-10-17T11:46:11.175Z,28.86
2017-10-17T11:48:39.583Z,27.40
2017-10-17T11:51:07.911Z,29.70
2017-10-17T11:53:37.762Z,31.24
2017-10-17T11:56:07.076Z,34.90
2017-10-17T11:58:37.225Z,34.58
2017-10-17T12:01:06.208Z,39.86
2017-10-17T12:03:34.626Z,39.70
2017-10-17T12:06:04.317Z,31.74
2017-10-17T12:08:33.684Z,32.72
2017-10-17T12:11:03.186Z,35.84
2017-10-17T12:13:31.793Z,35.72
2017-10-17T12:16:00.123Z,34.28
2017-10-17T12:18:28.445Z,32.20
2017-10-17T12:20:56.791Z,35.64
2017-10-17T12:23:25.128Z,34.08
2017-10-17T12:25:53.472Z,34.58
2017-10-17T12:28:21.951Z,37.42
2017-10-17T12:30:50.262Z,31.04
2017-10-17T12:33:18.595Z,33.32
2017-10-17T12:35:46.975Z,27.54
2017-10-17T12:38:15.319Z,30.88
2017-10-17T12:40:43.675Z,34.30
2017-10-17T12:43:11.978Z,35.04
2017-10-17T12:45:39.587Z,32.60
2017-10-17T12:48:07.904Z,36.42
2017-10-17T12:50:37.846Z,30.16
2017-10-17T12:53:07.147Z,31.12
2017-10-17T12:55:36.723Z,35.10
2017-10-17T12:58:05.063Z,32.64
2017-10-17T13:00:34.135Z,34.04
2017-10-17T13:03:03.803Z,34.76
2017-10-17T13:05:33.054Z,35.94
2017-10-17T13:08:01.387Z,35.04
2017-10-17T13:10:29.804Z,36.42
2017-10-17T13:12:58.149Z,33.46
2017-10-17T13:15:26.503Z,30.94
2017-10-17T13:17:54.819Z,37.80
2017-10-17T13:20:23.191Z,41.00
2017-10-17T13:22:52.646Z,31.64
2017-10-17T13:25:20.212Z,33.32
2017-10-17T13:27:48.643Z,36.10
2017-10-17T13:30:17.001Z,43.46
2017-10-17T13:32:45.314Z,35.62
2017-10-17T13:35:13.744Z,42.56
2017-10-17T13:37:42.071Z,36.68
2017-10-17T13:40:10.453Z,33.48
2017-10-17T13:42:38.805Z,36.86
2017-10-17T13:45:08.487Z,36.12
2017-10-17T13:47:36.835Z,37.54
2017-10-17T13:50:05.140Z,40.14
2017-10-17T13:52:34.713Z,41.46
2017-10-17T13:55:04.028Z,38.30
2017-10-17T13:57:33.687Z,39.34
2017-10-17T14:00:03.014Z,37.12
2017-10-17T14:02:31.325Z,43.78
2017-10-17T14:04:59.736Z,34.34
2017-10-17T14:07:27.327Z,41.76
2017-10-17T14:09:55.723Z,43.96
2017-10-17T14:12:24.031Z,45.48
2017-10-17T14:14:51.626Z,44.94
2017-10-17T14:17:19.970Z,43.68
2017-10-17T14:19:48.319Z,46.30
2017-10-17T14:22:16.662Z,45.48
2017-10-17T14:24:45.023Z,59.34
2017-10-17T14:27:13.351Z,48.56
2017-10-17T14:29:42.767Z,58.02
2017-10-17T14:32:11.099Z,45.96
2017-10-17T14:34:39.451Z,47.62
2017-10-17T14:37:09.126Z,40.14
2017-10-17T14:39:38.734Z,44.82
2017-10-17T14:42:07.955Z,41.00
2017-10-17T14:44:36.787Z,43.56
2017-10-17T14:47:05.103Z,48.62
2017-10-17T14:49:34.537Z,45.64
2017-10-17T14:52:02.864Z,46.02
2017-10-17T14:54:31.271Z,52.32
2017-10-17T14:56:59.581Z,45.88
2017-10-17T14:59:28.943Z,47.04
2017-10-17T15:01:57.318Z,39.24
2017-10-17T15:04:25.635Z,38.56
2017-10-17T15:06:53.975Z,38.48
2017-10-17T15:09:23.235Z,41.38
2017-10-17T15:11:51.572Z,41.46
2017-10-17T15:14:19.904Z,47.10
2017-10-17T15:16:48.253Z,47.68
2017-10-17T15:19:16.563Z,44.28
2017-10-17T15:21:44.913Z,45.40
2017-10-17T15:24:13.243Z,47.00
2017-10-17T15:26:41.551Z,41.40
2017-10-17T15:29:09.898Z,49.48
2017-10-17T15:31:38.215Z,46.44
2017-10-17T15:34:07.520Z,43.06
2017-10-17T15:36:35.883Z,42.50
2017-10-17T15:39:04.236Z,35.74
2017-10-17T15:41:33.556Z,33.20
2017-10-17T15:44:02.276Z,29.02
2017-10-17T15:46:30.602Z,30.74
2017-10-17T15:48:58.918Z,26.66
2017-10-17T15:51:27.275Z,26.28
2017-10-17T15:53:55.594Z,26.44
2017-10-17T15:56:23.924Z,27.02
2017-10-17T15:58:52.228Z,25.64
2017-10-17T16:01:20.594Z,28.50
2017-10-17T16:03:48.923Z,26.06
2017-10-17T16:06:17.226Z,26.70
2017-10-17T16:08:45.559Z,26.66
2017-10-17T16:11:13.863Z,25.30
2017-10-17T16:13:42.187Z,24.92
2017-10-17T16:16:10.501Z,26.02
2017-10-17T16:18:38.831Z,24.04
2017-10-17T16:21:08.275Z,21.88
2017-10-17T16:23:37.522Z,23.32
2017-10-17T16:26:05.828Z,24.70
2017-10-17T16:28:34.150Z,24.06
2017-10-17T16:31:03.340Z,22.66
2017-10-17T16:33:32.345Z,22.94
2017-10-17T16:36:00.679Z,30.76
2017-10-17T16:38:29.003Z,26.46
2017-10-17T16:40:57.334Z,29.06
2017-10-17T16:43:25.639Z,30.28
2017-10-17T16:45:53.988Z,27.72
2017-10-17T16:48:22.319Z,32.48
2017-10-17T16:50:50.632Z,27.12
2017-10-17T16:53:18.966Z,29.02
2017-10-17T16:55:47.275Z,22.54
2017-10-17T16:58:15.615Z,31.66
2017-10-17T17:00:43.939Z,24.70
2017-10-17T17:03:12.310Z,51.66
2017-10-17T17:05:40.631Z,31.68
2017-10-17T17:08:08.972Z,33.86
2017-10-17T17:10:37.623Z,29.12
2017-10-17T17:13:07.060Z,33.60
2017-10-17T17:15:37.001Z,36.10
2017-10-17T17:18:05.383Z,29.38
2017-10-17T17:20:34.270Z,28.80
2017-10-17T17:23:03.563Z,30.72
2017-10-17T17:25:32.389Z,26.40
2017-10-17T17:28:01.951Z,26.76
2017-10-17T17:30:30.498Z,27.20
2017-10-17T17:32:58.862Z,28.12
2017-10-17T17:35:27.227Z,31.54
2017-10-17T17:37:55.570Z,28.76
2017-10-17T17:40:23.951Z,27.56
2017-10-17T17:42:52.394Z,31.28
2017-10-17T17:45:20.765Z,24.82
2017-10-17T17:47:49.159Z,33.64
2017-10-17T17:50:17.694Z,29.14
2017-10-17T17:52:46.023Z,35.30
2017-10-17T17:55:14.354Z,34.58
2017-10-17T17:57:42.736Z,25.16
2017-10-17T18:00:11.199Z,29.80
2017-10-17T18:02:39.510Z,31.38
2017-10-17T18:05:07.864Z,26.78
2017-10-17T18:07:37.111Z,31.94
2017-10-17T18:10:05.451Z,38.40
2017-10-17T18:12:33.887Z,32.68
2017-10-17T18:15:03.187Z,29.60
2017-10-17T18:17:31.519Z,32.02
2017-10-17T18:20:01.075Z,35.66
2017-10-17T18:22:29.402Z,33.12
2017-10-17T18:24:57.816Z,35.70
2017-10-17T18:27:26.147Z,40.00
2017-10-17T18:29:54.525Z,31.02
2017-10-17T18:32:23.422Z,32.26
2017-10-17T18:34:51.968Z,41.00
2017-10-17T18:37:20.748Z,32.14
2017-10-17T18:39:49.059Z,33.82
2017-10-17T18:42:17.382Z,33.64
2017-10-17T18:44:45.706Z,36.12
2017-10-17T18:50:08.913Z,38.42
2017-10-17T18:52:38.544Z,32.12
2017-10-17T18:55:08.362Z,32.10
2017-10-17T18:57:38.335Z,33.20
2017-10-17T19:00:07.575Z,37.42
2017-10-17T19:02:35.907Z,30.98
2017-10-17T19:05:04.219Z,33.40
2017-10-17T19:07:31.814Z,31.26
2017-10-17T19:10:00.131Z,32.08
2017-10-17T19:12:28.475Z,37.04
2017-10-17T19:14:56.779Z,31.22
2017-10-17T19:17:25.115Z,28.98
2017-10-17T19:19:53.431Z,32.26
2017-10-17T19:22:21.763Z,30.06
2017-10-17T19:24:50.070Z,27.98
2017-10-17T19:27:18.449Z,32.20
2017-10-17T19:29:46.779Z,33.16
2017-10-17T19:32:15.092Z,38.56
2017-10-17T19:34:42.669Z,51.08
2017-10-17T19:37:10.994Z,36.40
2017-10-17T19:39:39.402Z,33.74
2017-10-17T19:42:09.792Z,30.88
2017-10-17T19:44:38.139Z,32.04
2017-10-17T19:47:07.424Z,38.86
2017-10-17T19:49:35.771Z,36.32
2017-10-17T19:52:04.103Z,37.06
2017-10-17T19:54:32.443Z,35.30
2017-10-17T19:57:00.752Z,29.70
2017-10-17T19:59:29.117Z,38.94
2017-10-17T20:01:57.436Z,30.24
2017-10-17T20:04:25.770Z,37.78
2017-10-17T20:06:54.096Z,32.58
2017-10-17T20:09:22.431Z,32.12
2017-10-17T20:11:50.743Z,32.50
2017-10-17T20:14:19.075Z,31.52
2017-10-17T20:16:48.468Z,32.08
2017-10-17T20:19:16.803Z,32.72
2017-10-17T20:21:45.127Z,33.74
2017-10-17T20:24:13.483Z,34.26
2017-10-17T20:26:41.808Z,36.42
2017-10-17T20:29:11.322Z,41.36
2017-10-17T20:31:40.675Z,38.50
2017-10-17T20:34:09.471Z,40.92
2017-10-17T20:36:38.491Z,37.60
2017-10-17T20:39:06.810Z,38.30
2017-10-17T20:41:34.371Z,46.64
2017-10-17T20:44:02.684Z,40.94
2017-10-17T20:46:30.251Z,39.14
2017-10-17T20:48:58.556Z,42.92
2017-10-17T20:51:26.906Z,35.18
2017-10-17T20:53:54.448Z,41.28
2017-10-17T20:56:22.791Z,44.70
2017-10-17T20:58:51.098Z,37.66
2017-10-17T21:01:19.427Z,42.98
2017-10-17T21:03:47.734Z,37.90
2017-10-17T21:06:15.315Z,39.54
2017-10-17T21:08:43.633Z,35.04
2017-10-17T21:11:11.963Z,32.44
2017-10-17T21:13:41.455Z,47.48
2017-10-17T21:16:09.620Z,34.78
2017-10-17T21:18:37.977Z,41.22
2017-10-17T21:21:07.642Z,37.22
2017-10-17T21:23:37.196Z,38.34
2017-10-17T21:26:06.798Z,37.62
2017-10-17T21:28:35.215Z,39.34
2017-10-17T21:31:03.526Z,39.22
2017-10-17T21:33:31.858Z,35.12
2017-10-17T21:36:00.179Z,40.96
2017-10-17T21:38:28.518Z,40.38
2017-10-17T21:40:56.831Z,34.24
2017-10-17T21:43:25.202Z,35.28
2017-10-17T21:45:52.751Z,34.02
2017-10-17T21:48:21.073Z,32.68
2017-10-17T21:50:49.431Z,32.56
2017-10-17T21:53:17.757Z,38.12
2017-10-17T21:55:46.155Z,32.96
2017-10-17T21:58:14.467Z,35.34
2017-10-17T22:00:53.784Z,37.48
2017-10-17T22:03:22.104Z,32.34
2017-10-17T22:05:50.431Z,36.32
2017-10-17T22:08:18.763Z,36.40
2017-10-17T22:10:47.080Z,36.14
2017-10-17T22:13:15.420Z,39.14
2017-10-17T22:15:42.975Z,36.28
2017-10-17T22:18:11.327Z,37.48
2017-10-17T22:20:40.631Z,32.04
2017-10-17T22:23:09.337Z,30.88
2017-10-17T22:25:39.822Z,32.68
2017-10-17T22:28:08.138Z,40.98
2017-10-17T22:30:37.756Z,33.62
2017-10-17T22:33:07.006Z,32.90
2017-10-17T22:35:35.356Z,37.30
2017-10-17T22:38:03.669Z,33.44
2017-10-17T22:40:31.992Z,33.32
2017-10-17T22:43:00.327Z,37.16
2017-10-17T22:45:28.634Z,33.50
2017-10-17T22:47:56.961Z,35.98
2017-10-17T22:50:24.507Z,33.32
2017-10-17T22:52:52.856Z,31.14
2017-10-17T22:55:21.183Z,30.94
2017-10-17T22:57:49.494Z,31.04
2017-10-17T23:00:17.835Z,36.24
2017-10-17T23:02:46.143Z,30.74
2017-10-17T23:05:14.484Z,32.62
2017-10-17T23:07:42.794Z,32.38
2017-10-17T23:10:11.879Z,31.58
2017-10-17T23:12:40.200Z,36.14
2017-10-17T23:15:08.511Z,29.44
2017-10-17T23:17:48.575Z,33.36
2017-10-17T23:20:28.746Z,36.24
2017-10-17T23:22:57.065Z,31.40
2017-10-17T23:25:25.399Z,32.60
2017-10-17T23:27:53.730Z,33.58
2017-10-17T23:30:22.040Z,30.54
2017-10-17T23:32:50.377Z,42.26
2017-10-17T23:35:18.703Z,34.70
2017-10-17T23:37:47.053Z,35.94
2017-10-17T23:40:15.363Z,33.14
2017-10-17T23:42:43.675Z,32.00
2017-10-17T23:45:12.008Z,25.52
2017-10-17T23:47:40.322Z,34.14
2017-10-17T23:50:08.646Z,32.38
2017-10-17T23:52:37.523Z,33.68
2017-10-17T23:55:05.849Z,33.52
2017-10-17T23:57:34.178Z,29.96
